sensor_id;sensor_type;location;lat;lon;timestamp;P1;durP1;ratioP1;P2;durP2;ratioP2
22849;SDS011;11591;44.792;10.358;2023-05-10T00:00:52;14.93;;;8.32;;
22849;SDS011;11591;44.792;10.358;2023-05-10T00:03:18;13.65;;;7.63;;
22849;SDS011;11591;44.792;10.358;2023-05-10T00:05:44;11.70;;;7.03;;
22849;SDS011;11591;44.792;10.358;2023-05-10T00:08:09;16.55;;;8.18;;
22849;SDS011;11591;44.792;10.358;2023-05-10T00:10:35;14.13;;;8.30;;
22849;SDS011;11591;44.792;10.358;2023-05-10T00:13:02;14.75;;;7.43;;
22849;SDS011;11591;44.792;10.358;2023-05-10T00:15:28;11.75;;;7.15;;
22849;SDS011;11591;44.792;10.358;2023-05-10T00:17:55;12.43;;;7.05;;
22849;SDS011;11591;44.792;10.358;2023-05-10T00:20:21;10.38;;;6.95;;
22849;SDS011;11591;44.792;10.358;2023-05-10T00:22:47;11.30;;;7.30;;
22849;SDS011;11591;44.792;10.358;2023-05-10T00:25:13;13.73;;;8.07;;
22849;SDS011;11591;44.792;10.358;2023-05-10T00:27:39;17.27;;;8.43;;
22849;SDS011;11591;44.792;10.358;2023-05-10T00:30:05;12.38;;;7.25;;
22849;SDS011;11591;44.792;10.358;2023-05-10T00:32:31;15.35;;;8.73;;
22849;SDS011;11591;44.792;10.358;2023-05-10T00:34:57;14.73;;;8.25;;
22849;SDS011;11591;44.792;10.358;2023-05-10T00:37:23;18.60;;;8.75;;
22849;SDS011;11591;44.792;10.358;2023-05-10T00:39:49;15.55;;;9.30;;
22849;SDS011;11591;44.792;10.358;2023-05-10T00:42:15;17.27;;;9.60;;
22849;SDS011;11591;44.792;10.358;2023-05-10T00:44:41;19.83;;;9.55;;
22849;SDS011;11591;44.792;10.358;2023-05-10T00:47:07;15.60;;;9.77;;
22849;SDS011;11591;44.792;10.358;2023-05-10T00:49:34;17.50;;;10.00;;
22849;SDS011;11591;44.792;10.358;2023-05-10T00:52:00;16.65;;;9.80;;
22849;SDS011;11591;44.792;10.358;2023-05-10T00:54:27;17.33;;;9.45;;
22849;SDS011;11591;44.792;10.358;2023-05-10T00:56:53;21.20;;;10.25;;
22849;SDS011;11591;44.792;10.358;2023-05-10T00:59:19;19.10;;;10.15;;
22849;SDS011;11591;44.792;10.358;2023-05-10T01:01:45;21.48;;;10.85;;
22849;SDS011;11591;44.792;10.358;2023-05-10T01:04:12;16.38;;;10.13;;
22849;SDS011;11591;44.792;10.358;2023-05-10T01:06:42;18.15;;;10.13;;
22849;SDS011;11591;44.792;10.358;2023-05-10T01:09:08;20.88;;;11.45;;
22849;SDS011;11591;44.792;10.358;2023-05-10T01:11:38;17.33;;;10.75;;
22849;SDS011;11591;44.792;10.358;2023-05-10T01:14:05;15.85;;;10.40;;
22849;SDS011;11591;44.792;10.358;2023-05-10T01:16:40;17.90;;;10.48;;
22849;SDS011;11591;44.792;10.358;2023-05-10T01:19:11;19.63;;;10.50;;
22849;SDS011;11591;44.792;10.358;2023-05-10T01:32:45;19.58;;;11.23;;
22849;SDS011;11591;44.792;10.358;2023-05-10T01:35:17;22.33;;;11.80;;
22849;SDS011;11591;44.792;10.358;2023-05-10T01:46:44;15.88;;;9.73;;
22849;SDS011;11591;44.792;10.358;2023-05-10T01:49:23;16.60;;;10.80;;
22849;SDS011;11591;44.792;10.358;2023-05-10T01:51:54;15.82;;;9.50;;
22849;SDS011;11591;44.792;10.358;2023-05-10T01:54:25;16.45;;;10.38;;
22849;SDS011;11591;44.792;10.358;2023-05-10T01:56:59;18.02;;;10.63;;
22849;SDS011;11591;44.792;10.358;2023-05-10T01:59:29;23.83;;;9.75;;
22849;SDS011;11591;44.792;10.358;2023-05-10T02:02:05;14.23;;;9.55;;
22849;SDS011;11591;44.792;10.358;2023-05-10T02:04:37;16.92;;;9.52;;
22849;SDS011;11591;44.792;10.358;2023-05-10T02:07:05;20.10;;;10.48;;
22849;SDS011;11591;44.792;10.358;2023-05-10T02:09:32;15.55;;;9.68;;
22849;SDS011;11591;44.792;10.358;2023-05-10T02:11:59;15.90;;;9.30;;
22849;SDS011;11591;44.792;10.358;2023-05-10T02:14:28;14.32;;;9.05;;
22849;SDS011;11591;44.792;10.358;2023-05-10T02:16:58;16.30;;;10.32;;
22849;SDS011;11591;44.792;10.358;2023-05-10T02:19:26;16.92;;;10.43;;
22849;SDS011;11591;44.792;10.358;2023-05-10T02:21:55;17.30;;;10.02;;
22849;SDS011;11591;44.792;10.358;2023-05-10T02:24:22;16.67;;;10.10;;
22849;SDS011;11591;44.792;10.358;2023-05-10T02:26:50;17.50;;;9.20;;
22849;SDS011;11591;44.792;10.358;2023-05-10T02:29:18;13.57;;;9.02;;
22849;SDS011;11591;44.792;10.358;2023-05-10T02:31:46;13.80;;;8.35;;
22849;SDS011;11591;44.792;10.358;2023-05-10T02:34:13;13.20;;;8.40;;
22849;SDS011;11591;44.792;10.358;2023-05-10T02:36:39;14.68;;;8.50;;
22849;SDS011;11591;44.792;10.358;2023-05-10T02:39:06;13.32;;;8.43;;
22849;SDS011;11591;44.792;10.358;2023-05-10T02:41:37;11.77;;;7.72;;
22849;SDS011;11591;44.792;10.358;2023-05-10T02:44:08;12.20;;;7.47;;
22849;SDS011;11591;44.792;10.358;2023-05-10T02:46:35;11.60;;;7.25;;
22849;SDS011;11591;44.792;10.358;2023-05-10T02:49:02;13.98;;;7.15;;
22849;SDS011;11591;44.792;10.358;2023-05-10T02:51:30;13.60;;;6.47;;
22849;SDS011;11591;44.792;10.358;2023-05-10T02:53:57;10.65;;;6.57;;
22849;SDS011;11591;44.792;10.358;2023-05-10T02:56:33;10.23;;;6.20;;
22849;SDS011;11591;44.792;10.358;2023-05-10T02:59:00;9.38;;;6.25;;
22849;SDS011;11591;44.792;10.358;2023-05-10T03:01:26;9.57;;;5.93;;
22849;SDS011;11591;44.792;10.358;2023-05-10T03:03:52;10.50;;;6.13;;
22849;SDS011;11591;44.792;10.358;2023-05-10T03:06:18;8.38;;;6.00;;
22849;SDS011;11591;44.792;10.358;2023-05-10T03:08:44;10.63;;;5.78;;
22849;SDS011;11591;44.792;10.358;2023-05-10T03:11:28;11.77;;;6.22;;
22849;SDS011;11591;44.792;10.358;2023-05-10T03:17:00;11.90;;;5.85;;
22849;SDS011;11591;44.792;10.358;2023-05-10T03:19:39;8.38;;;5.53;;
22849;SDS011;11591;44.792;10.358;2023-05-10T03:22:13;7.93;;;5.97;;
22849;SDS011;11591;44.792;10.358;2023-05-10T03:24:51;10.82;;;6.30;;
22849;SDS011;11591;44.792;10.358;2023-05-10T03:27:22;9.90;;;6.03;;
22849;SDS011;11591;44.792;10.358;2023-05-10T03:29:49;8.43;;;5.75;;
22849;SDS011;11591;44.792;10.358;2023-05-10T03:32:16;10.70;;;5.88;;
22849;SDS011;11591;44.792;10.358;2023-05-10T03:34:42;10.13;;;5.68;;
22849;SDS011;11591;44.792;10.358;2023-05-10T03:37:09;12.15;;;6.10;;
22849;SDS011;11591;44.792;10.358;2023-05-10T03:39:35;11.02;;;5.80;;
22849;SDS011;11591;44.792;10.358;2023-05-10T03:42:03;11.50;;;6.30;;
22849;SDS011;11591;44.792;10.358;2023-05-10T03:44:30;10.30;;;6.00;;
22849;SDS011;11591;44.792;10.358;2023-05-10T03:46:58;8.57;;;5.75;;
22849;SDS011;11591;44.792;10.358;2023-05-10T03:49:24;9.27;;;5.82;;
22849;SDS011;11591;44.792;10.358;2023-05-10T03:51:50;11.95;;;6.10;;
22849;SDS011;11591;44.792;10.358;2023-05-10T03:54:16;9.73;;;5.65;;
22849;SDS011;11591;44.792;10.358;2023-05-10T03:56:41;8.65;;;6.00;;
22849;SDS011;11591;44.792;10.358;2023-05-10T03:59:07;9.80;;;4.90;;
22849;SDS011;11591;44.792;10.358;2023-05-10T04:01:34;13.65;;;5.38;;
22849;SDS011;11591;44.792;10.358;2023-05-10T04:04:00;9.85;;;5.45;;
22849;SDS011;11591;44.792;10.358;2023-05-10T04:06:26;9.68;;;5.90;;
22849;SDS011;11591;44.792;10.358;2023-05-10T04:08:53;8.02;;;5.30;;
22849;SDS011;11591;44.792;10.358;2023-05-10T04:11:19;7.22;;;5.07;;
22849;SDS011;11591;44.792;10.358;2023-05-10T04:13:46;7.70;;;5.00;;
22849;SDS011;11591;44.792;10.358;2023-05-10T04:16:12;8.45;;;5.05;;
22849;SDS011;11591;44.792;10.358;2023-05-10T04:18:38;8.48;;;5.70;;
22849;SDS011;11591;44.792;10.358;2023-05-10T04:21:10;9.77;;;5.65;;
22849;SDS011;11591;44.792;10.358;2023-05-10T04:23:37;10.68;;;5.18;;
22849;SDS011;11591;44.792;10.358;2023-05-10T04:26:03;9.52;;;5.45;;
22849;SDS011;11591;44.792;10.358;2023-05-10T04:28:29;8.85;;;5.10;;
22849;SDS011;11591;44.792;10.358;2023-05-10T04:31:01;9.20;;;5.53;;
22849;SDS011;11591;44.792;10.358;2023-05-10T04:33:31;6.93;;;4.90;;
22849;SDS011;11591;44.792;10.358;2023-05-10T04:35:57;7.15;;;4.75;;
22849;SDS011;11591;44.792;10.358;2023-05-10T04:38:23;7.88;;;5.28;;
22849;SDS011;11591;44.792;10.358;2023-05-10T04:40:49;8.38;;;5.32;;
22849;SDS011;11591;44.792;10.358;2023-05-10T04:43:15;10.57;;;5.75;;
22849;SDS011;11591;44.792;10.358;2023-05-10T04:45:41;8.93;;;5.65;;
22849;SDS011;11591;44.792;10.358;2023-05-10T04:48:07;9.52;;;5.65;;
22849;SDS011;11591;44.792;10.358;2023-05-10T04:50:32;9.20;;;5.95;;
22849;SDS011;11591;44.792;10.358;2023-05-10T04:52:58;8.32;;;5.70;;
22849;SDS011;11591;44.792;10.358;2023-05-10T04:55:24;8.73;;;5.60;;
22849;SDS011;11591;44.792;10.358;2023-05-10T04:57:51;9.68;;;5.38;;
22849;SDS011;11591;44.792;10.358;2023-05-10T05:00:17;12.10;;;5.93;;
22849;SDS011;11591;44.792;10.358;2023-05-10T05:02:44;9.73;;;6.15;;
22849;SDS011;11591;44.792;10.358;2023-05-10T05:05:13;9.30;;;6.07;;
22849;SDS011;11591;44.792;10.358;2023-05-10T05:07:38;9.00;;;6.05;;
22849;SDS011;11591;44.792;10.358;2023-05-10T05:10:07;11.88;;;5.72;;
22849;SDS011;11591;44.792;10.358;2023-05-10T05:12:34;11.05;;;5.47;;
22849;SDS011;11591;44.792;10.358;2023-05-10T05:15:00;7.50;;;5.30;;
22849;SDS011;11591;44.792;10.358;2023-05-10T05:17:26;8.70;;;5.25;;
22849;SDS011;11591;44.792;10.358;2023-05-10T05:19:52;10.50;;;5.80;;
22849;SDS011;11591;44.792;10.358;2023-05-10T05:22:18;9.15;;;6.18;;
22849;SDS011;11591;44.792;10.358;2023-05-10T05:24:52;10.02;;;6.18;;
22849;SDS011;11591;44.792;10.358;2023-05-10T05:27:19;10.43;;;6.22;;
22849;SDS011;11591;44.792;10.358;2023-05-10T05:29:50;12.13;;;6.53;;
22849;SDS011;11591;44.792;10.358;2023-05-10T05:32:17;12.98;;;5.80;;
22849;SDS011;11591;44.792;10.358;2023-05-10T05:34:45;10.40;;;5.47;;
22849;SDS011;11591;44.792;10.358;2023-05-10T05:37:14;9.80;;;5.90;;
22849;SDS011;11591;44.792;10.358;2023-05-10T05:39:41;9.27;;;5.75;;
22849;SDS011;11591;44.792;10.358;2023-05-10T05:42:07;8.55;;;5.28;;
22849;SDS011;11591;44.792;10.358;2023-05-10T05:44:34;11.30;;;6.45;;
22849;SDS011;11591;44.792;10.358;2023-05-10T05:47:00;11.70;;;6.47;;
22849;SDS011;11591;44.792;10.358;2023-05-10T05:49:26;9.20;;;5.88;;
22849;SDS011;11591;44.792;10.358;2023-05-10T05:51:51;10.18;;;6.00;;
22849;SDS011;11591;44.792;10.358;2023-05-10T05:54:17;8.95;;;5.93;;
22849;SDS011;11591;44.792;10.358;2023-05-10T05:56:43;8.15;;;5.80;;
22849;SDS011;11591;44.792;10.358;2023-05-10T05:59:09;8.23;;;5.65;;
22849;SDS011;11591;44.792;10.358;2023-05-10T06:01:36;11.10;;;6.05;;
22849;SDS011;11591;44.792;10.358;2023-05-10T06:04:01;13.13;;;5.85;;
22849;SDS011;11591;44.792;10.358;2023-05-10T06:06:27;8.73;;;5.75;;
22849;SDS011;11591;44.792;10.358;2023-05-10T06:08:53;7.22;;;5.47;;
22849;SDS011;11591;44.792;10.358;2023-05-10T06:11:19;9.00;;;5.47;;
22849;SDS011;11591;44.792;10.358;2023-05-10T06:13:46;9.93;;;6.13;;
22849;SDS011;11591;44.792;10.358;2023-05-10T06:16:12;8.93;;;6.15;;
22849;SDS011;11591;44.792;10.358;2023-05-10T06:18:38;8.63;;;6.03;;
22849;SDS011;11591;44.792;10.358;2023-05-10T06:21:04;10.10;;;6.20;;
22849;SDS011;11591;44.792;10.358;2023-05-10T06:23:30;8.07;;;6.07;;
22849;SDS011;11591;44.792;10.358;2023-05-10T06:25:55;10.23;;;6.47;;
22849;SDS011;11591;44.792;10.358;2023-05-10T06:28:21;8.95;;;5.68;;
22849;SDS011;11591;44.792;10.358;2023-05-10T06:30:47;9.20;;;6.18;;
22849;SDS011;11591;44.792;10.358;2023-05-10T06:33:13;9.27;;;6.30;;
22849;SDS011;11591;44.792;10.358;2023-05-10T06:35:38;9.82;;;6.68;;
22849;SDS011;11591;44.792;10.358;2023-05-10T06:38:04;8.40;;;6.28;;
22849;SDS011;11591;44.792;10.358;2023-05-10T06:40:30;13.45;;;7.00;;
22849;SDS011;11591;44.792;10.358;2023-05-10T06:42:56;8.63;;;6.10;;
22849;SDS011;11591;44.792;10.358;2023-05-10T06:45:21;9.02;;;6.22;;
22849;SDS011;11591;44.792;10.358;2023-05-10T06:47:47;11.98;;;6.72;;
22849;SDS011;11591;44.792;10.358;2023-05-10T06:50:13;8.32;;;5.68;;
22849;SDS011;11591;44.792;10.358;2023-05-10T06:52:39;8.23;;;5.63;;
22849;SDS011;11591;44.792;10.358;2023-05-10T06:55:06;10.82;;;6.00;;
22849;SDS011;11591;44.792;10.358;2023-05-10T06:57:32;12.77;;;6.32;;
22849;SDS011;11591;44.792;10.358;2023-05-10T06:59:58;9.35;;;5.88;;
22849;SDS011;11591;44.792;10.358;2023-05-10T07:02:24;10.82;;;5.88;;
22849;SDS011;11591;44.792;10.358;2023-05-10T07:04:50;8.35;;;5.30;;
22849;SDS011;11591;44.792;10.358;2023-05-10T07:07:17;11.82;;;6.13;;
22849;SDS011;11591;44.792;10.358;2023-05-10T07:09:43;12.55;;;6.22;;
22849;SDS011;11591;44.792;10.358;2023-05-10T07:12:09;7.47;;;4.95;;
22849;SDS011;11591;44.792;10.358;2023-05-10T07:14:35;8.68;;;4.50;;
22849;SDS011;11591;44.792;10.358;2023-05-10T07:17:00;8.50;;;4.68;;
22849;SDS011;11591;44.792;10.358;2023-05-10T07:19:26;10.95;;;5.60;;
22849;SDS011;11591;44.792;10.358;2023-05-10T07:21:52;7.50;;;5.10;;
22849;SDS011;11591;44.792;10.358;2023-05-10T07:24:17;14.40;;;8.10;;
22849;SDS011;11591;44.792;10.358;2023-05-10T07:26:43;10.20;;;5.97;;
22849;SDS011;11591;44.792;10.358;2023-05-10T07:29:09;15.68;;;9.73;;
22849;SDS011;11591;44.792;10.358;2023-05-10T07:31:35;8.88;;;5.43;;
22849;SDS011;11591;44.792;10.358;2023-05-10T07:34:00;12.75;;;5.80;;
22849;SDS011;11591;44.792;10.358;2023-05-10T07:36:26;10.60;;;6.38;;
22849;SDS011;11591;44.792;10.358;2023-05-10T07:38:53;10.07;;;6.00;;
22849;SDS011;11591;44.792;10.358;2023-05-10T07:41:18;7.72;;;5.10;;
22849;SDS011;11591;44.792;10.358;2023-05-10T07:43:46;8.10;;;4.95;;
22849;SDS011;11591;44.792;10.358;2023-05-10T07:46:11;10.40;;;5.93;;
22849;SDS011;11591;44.792;10.358;2023-05-10T07:48:37;7.53;;;4.80;;
22849;SDS011;11591;44.792;10.358;2023-05-10T07:51:03;9.95;;;5.30;;
22849;SDS011;11591;44.792;10.358;2023-05-10T07:53:29;13.80;;;5.97;;
22849;SDS011;11591;44.792;10.358;2023-05-10T07:55:57;8.38;;;5.70;;
22849;SDS011;11591;44.792;10.358;2023-05-10T07:58:23;12.27;;;5.70;;
22849;SDS011;11591;44.792;10.358;2023-05-10T08:00:49;12.52;;;5.10;;
22849;SDS011;11591;44.792;10.358;2023-05-10T08:03:15;9.18;;;5.20;;
22849;SDS011;11591;44.792;10.358;2023-05-10T08:05:41;8.73;;;4.88;;
22849;SDS011;11591;44.792;10.358;2023-05-10T08:08:08;6.70;;;4.85;;
22849;SDS011;11591;44.792;10.358;2023-05-10T08:10:34;11.05;;;4.93;;
22849;SDS011;11591;44.792;10.358;2023-05-10T08:13:00;8.95;;;5.07;;
22849;SDS011;11591;44.792;10.358;2023-05-10T08:15:25;6.47;;;4.40;;
22849;SDS011;11591;44.792;10.358;2023-05-10T08:17:51;8.52;;;4.97;;
22849;SDS011;11591;44.792;10.358;2023-05-10T08:20:17;7.38;;;4.45;;
22849;SDS011;11591;44.792;10.358;2023-05-10T08:22:46;6.80;;;4.55;;
22849;SDS011;11591;44.792;10.358;2023-05-10T08:25:12;12.65;;;5.47;;
22849;SDS011;11591;44.792;10.358;2023-05-10T08:27:38;9.85;;;5.70;;
22849;SDS011;11591;44.792;10.358;2023-05-10T08:30:04;9.25;;;5.57;;
22849;SDS011;11591;44.792;10.358;2023-05-10T08:32:30;11.88;;;6.20;;
22849;SDS011;11591;44.792;10.358;2023-05-10T08:34:56;9.63;;;5.70;;
22849;SDS011;11591;44.792;10.358;2023-05-10T08:37:23;9.50;;;5.78;;
22849;SDS011;11591;44.792;10.358;2023-05-10T08:39:49;12.00;;;6.82;;
22849;SDS011;11591;44.792;10.358;2023-05-10T08:42:16;10.90;;;6.00;;
22849;SDS011;11591;44.792;10.358;2023-05-10T08:44:46;11.55;;;5.75;;
22849;SDS011;11591;44.792;10.358;2023-05-10T08:47:15;9.65;;;5.65;;
22849;SDS011;11591;44.792;10.358;2023-05-10T08:49:43;9.38;;;5.80;;
22849;SDS011;11591;44.792;10.358;2023-05-10T08:52:13;9.63;;;5.50;;
22849;SDS011;11591;44.792;10.358;2023-05-10T08:54:41;11.50;;;5.97;;
22849;SDS011;11591;44.792;10.358;2023-05-10T08:57:08;10.38;;;6.25;;
22849;SDS011;11591;44.792;10.358;2023-05-10T08:59:33;10.48;;;6.35;;
22849;SDS011;11591;44.792;10.358;2023-05-10T09:01:59;10.63;;;6.03;;
22849;SDS011;11591;44.792;10.358;2023-05-10T09:04:27;10.18;;;6.07;;
22849;SDS011;11591;44.792;10.358;2023-05-10T09:06:54;11.40;;;6.53;;
22849;SDS011;11591;44.792;10.358;2023-05-10T09:09:20;12.93;;;6.60;;
22849;SDS011;11591;44.792;10.358;2023-05-10T09:11:47;12.63;;;6.63;;
22849;SDS011;11591;44.792;10.358;2023-05-10T09:14:13;11.82;;;6.50;;
22849;SDS011;11591;44.792;10.358;2023-05-10T09:16:40;11.30;;;6.47;;
22849;SDS011;11591;44.792;10.358;2023-05-10T09:19:06;12.13;;;6.88;;
22849;SDS011;11591;44.792;10.358;2023-05-10T09:21:35;16.63;;;9.60;;
22849;SDS011;11591;44.792;10.358;2023-05-10T09:24:04;18.20;;;10.77;;
22849;SDS011;11591;44.792;10.358;2023-05-10T09:26:31;14.18;;;7.53;;
22849;SDS011;11591;44.792;10.358;2023-05-10T09:28:58;14.48;;;7.13;;
22849;SDS011;11591;44.792;10.358;2023-05-10T09:31:25;10.27;;;6.10;;
22849;SDS011;11591;44.792;10.358;2023-05-10T09:34:15;9.73;;;5.22;;
22849;SDS011;11591;44.792;10.358;2023-05-10T09:36:51;10.23;;;5.85;;
22849;SDS011;11591;44.792;10.358;2023-05-10T09:39:17;10.10;;;5.43;;
22849;SDS011;11591;44.792;10.358;2023-05-10T09:41:43;8.13;;;5.38;;
22849;SDS011;11591;44.792;10.358;2023-05-10T09:44:09;10.07;;;5.47;;
22849;SDS011;11591;44.792;10.358;2023-05-10T09:46:35;9.52;;;5.55;;
22849;SDS011;11591;44.792;10.358;2023-05-10T09:49:01;10.32;;;6.03;;
22849;SDS011;11591;44.792;10.358;2023-05-10T09:51:27;11.43;;;6.65;;
22849;SDS011;11591;44.792;10.358;2023-05-10T09:54:14;10.88;;;5.72;;
22849;SDS011;11591;44.792;10.358;2023-05-10T09:56:41;8.52;;;5.00;;
22849;SDS011;11591;44.792;10.358;2023-05-10T09:59:11;9.55;;;5.60;;
22849;SDS011;11591;44.792;10.358;2023-05-10T10:01:37;9.00;;;4.95;;
22849;SDS011;11591;44.792;10.358;2023-05-10T10:04:07;7.60;;;5.07;;
22849;SDS011;11591;44.792;10.358;2023-05-10T10:06:38;10.55;;;4.70;;
22849;SDS011;11591;44.792;10.358;2023-05-10T10:09:05;11.02;;;4.50;;
22849;SDS011;11591;44.792;10.358;2023-05-10T10:11:31;6.95;;;4.43;;
22849;SDS011;11591;44.792;10.358;2023-05-10T10:13:59;8.00;;;4.20;;
22849;SDS011;11591;44.792;10.358;2023-05-10T10:16:25;6.28;;;3.90;;
22849;SDS011;11591;44.792;10.358;2023-05-10T10:18:53;7.57;;;3.90;;
22849;SDS011;11591;44.792;10.358;2023-05-10T10:21:20;8.10;;;4.50;;
22849;SDS011;11591;44.792;10.358;2023-05-10T10:23:46;6.15;;;4.40;;
22849;SDS011;11591;44.792;10.358;2023-05-10T10:26:12;8.60;;;4.55;;
22849;SDS011;11591;44.792;10.358;2023-05-10T10:31:17;6.82;;;4.50;;
22849;SDS011;11591;44.792;10.358;2023-05-10T10:33:56;7.80;;;4.50;;
22849;SDS011;11591;44.792;10.358;2023-05-10T10:36:24;7.43;;;4.47;;
22849;SDS011;11591;44.792;10.358;2023-05-10T10:38:55;8.32;;;4.68;;
22849;SDS011;11591;44.792;10.358;2023-05-10T10:49:37;9.77;;;5.18;;
22849;SDS011;11591;44.792;10.358;2023-05-10T11:00:31;8.90;;;5.38;;
22849;SDS011;11591;44.792;10.358;2023-05-10T11:03:12;7.13;;;4.22;;
22849;SDS011;11591;44.792;10.358;2023-05-10T11:05:42;8.80;;;5.13;;
22849;SDS011;11591;44.792;10.358;2023-05-10T11:08:11;8.52;;;4.60;;
22849;SDS011;11591;44.792;10.358;2023-05-10T11:10:37;6.75;;;4.40;;
22849;SDS011;11591;44.792;10.358;2023-05-10T11:13:08;7.07;;;4.82;;
22849;SDS011;11591;44.792;10.358;2023-05-10T11:15:36;7.72;;;4.82;;
22849;SDS011;11591;44.792;10.358;2023-05-10T11:18:23;8.10;;;4.97;;
22849;SDS011;11591;44.792;10.358;2023-05-10T11:20:51;6.93;;;5.03;;
22849;SDS011;11591;44.792;10.358;2023-05-10T11:23:18;9.77;;;4.80;;
22849;SDS011;11591;44.792;10.358;2023-05-10T11:25:45;8.70;;;4.97;;
22849;SDS011;11591;44.792;10.358;2023-05-10T11:28:12;7.90;;;4.65;;
22849;SDS011;11591;44.792;10.358;2023-05-10T11:30:38;7.13;;;5.13;;
22849;SDS011;11591;44.792;10.358;2023-05-10T11:33:05;6.32;;;4.22;;
22849;SDS011;11591;44.792;10.358;2023-05-10T11:35:36;6.35;;;4.70;;
22849;SDS011;11591;44.792;10.358;2023-05-10T11:38:05;7.93;;;4.38;;
22849;SDS011;11591;44.792;10.358;2023-05-10T11:40:31;7.35;;;4.75;;
22849;SDS011;11591;44.792;10.358;2023-05-10T11:42:57;7.15;;;4.60;;
22849;SDS011;11591;44.792;10.358;2023-05-10T11:45:24;6.53;;;4.60;;
22849;SDS011;11591;44.792;10.358;2023-05-10T11:47:51;7.88;;;4.57;;
22849;SDS011;11591;44.792;10.358;2023-05-10T11:50:17;7.22;;;4.90;;
22849;SDS011;11591;44.792;10.358;2023-05-10T11:52:43;10.65;;;5.45;;
22849;SDS011;11591;44.792;10.358;2023-05-10T11:55:08;12.75;;;6.45;;
22849;SDS011;11591;44.792;10.358;2023-05-10T11:57:34;11.77;;;6.80;;
22849;SDS011;11591;44.792;10.358;2023-05-10T12:00:00;9.57;;;5.20;;
22849;SDS011;11591;44.792;10.358;2023-05-10T12:02:32;10.75;;;5.90;;
22849;SDS011;11591;44.792;10.358;2023-05-10T12:04:58;7.80;;;5.18;;
22849;SDS011;11591;44.792;10.358;2023-05-10T12:07:25;8.35;;;4.57;;
22849;SDS011;11591;44.792;10.358;2023-05-10T12:15:13;6.50;;;4.25;;
22849;SDS011;11591;44.792;10.358;2023-05-10T12:17:43;7.97;;;5.05;;
22849;SDS011;11591;44.792;10.358;2023-05-10T12:20:19;7.40;;;4.70;;
22849;SDS011;11591;44.792;10.358;2023-05-10T12:22:51;7.30;;;5.00;;
22849;SDS011;11591;44.792;10.358;2023-05-10T12:25:18;8.32;;;5.00;;
22849;SDS011;11591;44.792;10.358;2023-05-10T12:27:57;7.13;;;4.68;;
22849;SDS011;11591;44.792;10.358;2023-05-10T12:30:28;7.93;;;4.70;;
22849;SDS011;11591;44.792;10.358;2023-05-10T12:33:17;7.50;;;4.90;;
22849;SDS011;11591;44.792;10.358;2023-05-10T12:38:26;8.55;;;5.07;;
22849;SDS011;11591;44.792;10.358;2023-05-10T12:41:03;7.13;;;4.22;;
22849;SDS011;11591;44.792;10.358;2023-05-10T12:43:30;7.85;;;5.05;;
22849;SDS011;11591;44.792;10.358;2023-05-10T12:45:56;7.80;;;5.28;;
22849;SDS011;11591;44.792;10.358;2023-05-10T12:48:22;5.72;;;4.07;;
22849;SDS011;11591;44.792;10.358;2023-05-10T12:50:48;6.50;;;4.07;;
22849;SDS011;11591;44.792;10.358;2023-05-10T12:53:14;7.68;;;4.82;;
22849;SDS011;11591;44.792;10.358;2023-05-10T12:55:41;11.93;;;4.93;;
22849;SDS011;11591;44.792;10.358;2023-05-10T12:58:07;9.88;;;4.40;;
22849;SDS011;11591;44.792;10.358;2023-05-10T13:00:33;6.47;;;4.57;;
22849;SDS011;11591;44.792;10.358;2023-05-10T13:02:59;7.63;;;4.55;;
22849;SDS011;11591;44.792;10.358;2023-05-10T13:05:25;7.72;;;5.00;;
22849;SDS011;11591;44.792;10.358;2023-05-10T13:07:51;8.07;;;4.93;;
22849;SDS011;11591;44.792;10.358;2023-05-10T13:10:17;8.63;;;4.60;;
22849;SDS011;11591;44.792;10.358;2023-05-10T13:12:43;6.35;;;4.38;;
22849;SDS011;11591;44.792;10.358;2023-05-10T13:15:08;8.77;;;5.03;;
22849;SDS011;11591;44.792;10.358;2023-05-10T13:17:34;7.22;;;4.50;;
22849;SDS011;11591;44.792;10.358;2023-05-10T13:20:00;6.75;;;4.53;;
22849;SDS011;11591;44.792;10.358;2023-05-10T13:22:26;11.85;;;7.25;;
22849;SDS011;11591;44.792;10.358;2023-05-10T13:24:52;8.25;;;4.82;;
22849;SDS011;11591;44.792;10.358;2023-05-10T13:27:17;6.90;;;4.38;;
22849;SDS011;11591;44.792;10.358;2023-05-10T13:29:43;6.65;;;4.35;;
22849;SDS011;11591;44.792;10.358;2023-05-10T13:32:09;9.25;;;4.25;;
22849;SDS011;11591;44.792;10.358;2023-05-10T13:34:35;5.65;;;4.10;;
22849;SDS011;11591;44.792;10.358;2023-05-10T13:37:01;4.75;;;3.80;;
22849;SDS011;11591;44.792;10.358;2023-05-10T13:39:26;5.88;;;4.15;;
22849;SDS011;11591;44.792;10.358;2023-05-10T13:41:52;5.95;;;3.95;;
22849;SDS011;11591;44.792;10.358;2023-05-10T13:44:20;5.18;;;3.90;;
22849;SDS011;11591;44.792;10.358;2023-05-10T13:46:45;6.13;;;4.07;;
22849;SDS011;11591;44.792;10.358;2023-05-10T13:49:11;5.97;;;4.03;;
22849;SDS011;11591;44.792;10.358;2023-05-10T13:51:37;6.95;;;3.90;;
22849;SDS011;11591;44.792;10.358;2023-05-10T13:54:03;5.32;;;3.63;;
22849;SDS011;11591;44.792;10.358;2023-05-10T13:56:28;5.78;;;4.03;;
22849;SDS011;11591;44.792;10.358;2023-05-10T13:58:55;6.60;;;4.25;;
22849;SDS011;11591;44.792;10.358;2023-05-10T14:01:22;8.38;;;4.50;;
22849;SDS011;11591;44.792;10.358;2023-05-10T14:03:48;5.72;;;3.97;;
22849;SDS011;11591;44.792;10.358;2023-05-10T14:06:17;10.27;;;4.03;;
22849;SDS011;11591;44.792;10.358;2023-05-10T14:08:43;6.35;;;4.18;;
22849;SDS011;11591;44.792;10.358;2023-05-10T14:11:11;8.50;;;4.40;;
22849;SDS011;11591;44.792;10.358;2023-05-10T14:13:37;6.78;;;4.40;;
22849;SDS011;11591;44.792;10.358;2023-05-10T14:16:16;6.32;;;4.68;;
22849;SDS011;11591;44.792;10.358;2023-05-10T14:18:42;8.68;;;5.07;;
22849;SDS011;11591;44.792;10.358;2023-05-10T14:21:08;7.75;;;4.68;;
22849;SDS011;11591;44.792;10.358;2023-05-10T14:23:34;8.80;;;5.10;;
22849;SDS011;11591;44.792;10.358;2023-05-10T14:26:00;8.55;;;5.43;;
22849;SDS011;11591;44.792;10.358;2023-05-10T14:28:29;7.85;;;5.22;;
22849;SDS011;11591;44.792;10.358;2023-05-10T14:30:55;9.27;;;5.75;;
22849;SDS011;11591;44.792;10.358;2023-05-10T14:33:21;8.43;;;5.28;;
22849;SDS011;11591;44.792;10.358;2023-05-10T14:35:47;7.85;;;5.45;;
22849;SDS011;11591;44.792;10.358;2023-05-10T14:38:13;10.93;;;5.68;;
22849;SDS011;11591;44.792;10.358;2023-05-10T14:40:39;7.35;;;5.10;;
22849;SDS011;11591;44.792;10.358;2023-05-10T14:43:05;10.45;;;6.05;;
22849;SDS011;11591;44.792;10.358;2023-05-10T14:45:31;7.75;;;5.28;;
22849;SDS011;11591;44.792;10.358;2023-05-10T14:47:57;6.55;;;4.78;;
22849;SDS011;11591;44.792;10.358;2023-05-10T14:50:24;8.73;;;5.22;;
22849;SDS011;11591;44.792;10.358;2023-05-10T14:52:49;9.98;;;5.32;;
22849;SDS011;11591;44.792;10.358;2023-05-10T14:55:15;7.20;;;5.30;;
22849;SDS011;11591;44.792;10.358;2023-05-10T14:57:42;8.98;;;5.65;;
22849;SDS011;11591;44.792;10.358;2023-05-10T15:00:09;7.28;;;5.05;;
22849;SDS011;11591;44.792;10.358;2023-05-10T15:02:35;7.07;;;4.97;;
22849;SDS011;11591;44.792;10.358;2023-05-10T15:05:01;9.10;;;5.40;;
22849;SDS011;11591;44.792;10.358;2023-05-10T15:07:27;9.93;;;5.75;;
22849;SDS011;11591;44.792;10.358;2023-05-10T15:09:53;7.72;;;5.10;;
22849;SDS011;11591;44.792;10.358;2023-05-10T15:12:19;8.15;;;5.53;;
22849;SDS011;11591;44.792;10.358;2023-05-10T15:14:45;8.75;;;5.43;;
22849;SDS011;11591;44.792;10.358;2023-05-10T15:17:11;11.35;;;5.80;;
22849;SDS011;11591;44.792;10.358;2023-05-10T15:19:37;13.85;;;7.65;;